createdAt,value
2016-05-09T00:00:45.262Z,14.99
2016-05-09T00:01:45.296Z,14.9
2016-05-09T00:02:45.316Z,14.87
2016-05-09T00:03:45.365Z,14.85
2016-05-09T00:04:58.087Z,14.85
2016-05-09T00:05:58.120Z,14.89
2016-05-09T00:07:55.079Z,14.85
2016-05-09T00:08:55.035Z,14.78
2016-05-09T00:09:58.131Z,14.79
2016-05-09T00:11:07.650Z,14.7
2016-05-09T00:12:01.386Z,14.63
2016-05-09T00:13:20.829Z,14.79
2016-05-09T00:14:14.567Z,14.81
2016-05-09T00:14:55.020Z,14.81
2016-05-09T00:16:20.853Z,14.82
2016-05-09T00:17:06.041Z,14.79
2016-05-09T00:18:25.280Z,14.82
2016-05-09T00:19:06.155Z,14.87
2016-05-09T00:21:21.211Z,14.89
2016-05-09T00:22:21.307Z,14.9
2016-05-09T00:23:21.403Z,14.97
2016-05-09T00:24:21.265Z,14.96
2016-05-09T00:25:21.283Z,14.92
2016-05-09T00:26:24.348Z,14.92
2016-05-09T00:27:21.508Z,14.97
2016-05-09T00:28:34.229Z,14.94
2016-05-09T00:29:22.779Z,14.96
2016-05-09T00:30:21.547Z,14.93
2016-05-09T00:31:34.127Z,14.92
2016-05-09T00:32:23.005Z,14.87
2016-05-09T00:33:21.602Z,14.97
2016-05-09T00:34:34.385Z,14.9
2016-05-09T00:35:21.654Z,14.92
2016-05-09T00:36:34.438Z,14.79
2016-05-09T00:37:21.534Z,14.78
2016-05-09T00:38:21.787Z,14.79
2016-05-09T00:39:22.978Z,14.74
2016-05-09T00:40:40.949Z,14.78
2016-05-09T00:41:21.623Z,14.78
2016-05-09T00:42:21.798Z,14.78
2016-05-09T00:43:21.832Z,14.77
2016-05-09T00:44:34.632Z,14.77
2016-05-09T00:45:23.274Z,14.68
2016-05-09T00:46:21.918Z,14.66
2016-05-09T00:47:34.639Z,14.62
2016-05-09T00:48:21.923Z,14.53
2016-05-09T00:49:34.597Z,14.68
2016-05-09T00:50:23.383Z,14.58
2016-05-09T00:51:22.041Z,14.43
2016-05-09T00:52:21.856Z,14.43
2016-05-09T00:53:29.561Z,14.48
2016-05-09T00:54:23.471Z,14.51
2016-05-09T00:55:22.114Z,14.41
2016-05-09T00:56:34.835Z,14.55
2016-05-09T00:57:22.119Z,14.45
2016-05-09T00:58:22.138Z,14.53
2016-05-09T00:59:22.000Z,14.48
2016-05-09T01:00:23.565Z,14.43
2016-05-09T01:01:34.927Z,14.41
2016-05-09T01:02:22.071Z,14.45
2016-05-09T01:03:22.057Z,14.41
2016-05-09T01:04:41.451Z,14.37
2016-05-09T01:05:22.282Z,14.36
2016-05-09T01:06:22.409Z,14.41
2016-05-09T01:07:34.896Z,14.41
2016-05-09T01:08:22.351Z,14.33
2016-05-09T01:09:41.559Z,14.41
2016-05-09T01:10:22.390Z,14.45
2016-05-09T01:11:22.235Z,14.45
2016-05-09T01:12:35.144Z,14.36
2016-05-09T01:13:25.490Z,14.45
2016-05-09T01:14:22.524Z,14.41
2016-05-09T01:15:22.356Z,14.36
2016-05-09T01:16:22.484Z,14.38
2016-05-09T01:17:22.533Z,14.36
2016-05-09T01:18:22.395Z,14.37
2016-05-09T01:19:35.303Z,14.37
2016-05-09T01:20:25.634Z,14.23
2016-05-09T01:21:41.808Z,14.28
2016-05-09T01:22:22.625Z,14.31
2016-05-09T01:23:48.299Z,14.2
2016-05-09T01:24:44.989Z,14.22
2016-05-09T01:25:32.288Z,14.2
2016-05-09T01:26:57.900Z,14.08
2016-05-09T01:27:41.857Z,14.04
2016-05-09T01:28:54.610Z,14.05
2016-05-09T01:29:54.643Z,14.01
2016-05-09T01:30:41.755Z,13.98
2016-05-09T01:32:07.601Z,13.98
2016-05-09T01:32:41.963Z,14.01
2016-05-09T01:33:41.966Z,14
2016-05-09T01:34:41.829Z,13.89
2016-05-09T01:35:43.424Z,13.94
2016-05-09T01:36:42.131Z,13.97
2016-05-09T01:37:41.914Z,13.97
2016-05-09T01:38:42.137Z,13.98
2016-05-09T01:39:42.093Z,13.95
2016-05-09T01:40:42.188Z,13.83
2016-05-09T01:41:54.895Z,13.95
2016-05-09T01:42:54.897Z,13.83
2016-05-09T01:44:01.399Z,13.82
2016-05-09T01:45:07.731Z,13.79
2016-05-09T01:45:42.217Z,13.71
2016-05-09T01:47:13.536Z,13.82
2016-05-09T01:47:57.192Z,13.8
2016-05-09T01:48:57.366Z,13.82
2016-05-09T01:50:00.259Z,13.75
2016-05-09T01:51:10.152Z,13.79
2016-05-09T01:51:57.422Z,13.8
2016-05-09T01:52:57.502Z,13.78
2016-05-09T01:54:00.520Z,13.7
2016-05-09T01:54:57.522Z,13.71
2016-05-09T01:55:57.510Z,13.65
2016-05-09T01:56:57.528Z,13.71
2016-05-09T01:58:10.281Z,13.62
2016-05-09T01:58:57.408Z,13.64
2016-05-09T02:00:19.913Z,13.6
2016-05-09T02:00:57.616Z,13.58
2016-05-09T02:03:07.372Z,13.4
2016-05-09T02:04:07.407Z,13.5
2016-05-09T02:05:10.425Z,13.49
2016-05-09T02:06:10.459Z,13.46
2016-05-09T02:07:20.026Z,13.45
2016-05-09T02:08:07.557Z,13.37
2016-05-09T02:09:07.499Z,13.3
2016-05-09T02:10:26.723Z,13.28
2016-05-09T02:11:20.271Z,13.28
2016-05-09T02:12:38.837Z,13.28
2016-05-09T02:13:33.245Z,13.26
2016-05-09T02:14:07.870Z,13.19
2016-05-09T02:16:23.020Z,13.19
2016-05-09T02:17:22.881Z,13.17
2016-05-09T02:18:22.884Z,13.21
2016-05-09T02:19:22.917Z,13.19
2016-05-09T02:20:22.936Z,13.05
2016-05-09T02:21:30.627Z,13.2
2016-05-09T02:22:22.973Z,13.23
2016-05-09T02:23:23.029Z,13.24
2016-05-09T02:24:23.016Z,13.2
2016-05-09T02:25:23.018Z,13.2
2016-05-09T02:26:23.054Z,13.2
2016-05-09T02:27:23.166Z,13.23
2016-05-09T02:28:23.090Z,13.2
2016-05-09T02:29:35.842Z,13.2
2016-05-09T02:30:35.860Z,13.08
2016-05-09T02:31:48.817Z,13.02
2016-05-09T02:32:48.898Z,12.99
2016-05-09T02:33:32.869Z,13.13
2016-05-09T02:34:58.231Z,13.11
2016-05-09T02:35:32.921Z,13.11
2016-05-09T02:36:32.939Z,13.11
2016-05-09T02:37:45.661Z,13.03
2016-05-09T02:38:45.554Z,13.09
2016-05-09T02:39:52.167Z,13.03
2016-05-09T02:40:53.466Z,13.05
2016-05-09T02:41:32.859Z,13.03
2016-05-09T02:42:33.050Z,13.01
2016-05-09T02:43:34.349Z,13.06
2016-05-09T02:44:33.289Z,13.02
2016-05-09T02:45:45.823Z,12.98
2016-05-09T02:46:33.122Z,13.01
2016-05-09T02:48:04.406Z,12.88
2016-05-09T02:48:33.363Z,12.91
2016-05-09T02:49:33.178Z,13.01
2016-05-09T02:50:33.196Z,12.86
2016-05-09T02:51:33.214Z,12.88
2016-05-09T02:52:33.248Z,13.02
2016-05-09T02:53:33.391Z,12.88
2016-05-09T02:54:33.253Z,12.88
2016-05-09T02:55:33.319Z,12.9
2016-05-09T02:56:33.305Z,12.93
2016-05-09T02:57:33.480Z,12.91
2016-05-09T02:58:33.170Z,12.91
2016-05-09T02:59:33.471Z,12.9
2016-05-09T03:00:41.082Z,12.86
2016-05-09T03:01:33.413Z,12.87
2016-05-09T03:02:33.790Z,12.86
2016-05-09T03:03:33.528Z,12.88
2016-05-09T03:04:33.576Z,12.91
2016-05-09T03:05:33.533Z,12.87
2016-05-09T03:06:52.770Z,12.9
2016-05-09T03:07:46.335Z,12.95
2016-05-09T03:08:59.322Z,12.95
2016-05-09T03:09:33.560Z,12.86
2016-05-09T03:10:33.797Z,12.88
2016-05-09T03:11:33.611Z,12.83
2016-05-09T03:12:52.927Z,12.84
2016-05-09T03:13:46.383Z,12.83
2016-05-09T03:15:05.354Z,12.87
2016-05-09T03:16:30.500Z,12.9
2016-05-09T03:17:14.441Z,12.84
2016-05-09T03:18:14.458Z,12.8
2016-05-09T03:19:14.492Z,12.84
2016-05-09T03:20:27.245Z,12.72
2016-05-09T03:21:17.561Z,12.84
2016-05-09T03:22:40.219Z,12.81
2016-05-09T03:23:14.566Z,12.83
2016-05-09T03:24:45.865Z,12.75
2016-05-09T03:25:27.337Z,12.73
2016-05-09T03:27:14.465Z,12.76
2016-05-09T03:28:14.783Z,12.78
2016-05-09T03:29:27.238Z,12.8
2016-05-09T03:30:33.726Z,12.84
2016-05-09T03:31:33.931Z,12.83
2016-05-09T03:32:40.449Z,12.83
2016-05-09T03:33:37.014Z,12.81
2016-05-09T03:34:47.471Z,12.84
2016-05-09T03:35:50.817Z,12.8
2016-05-09T03:37:00.445Z,12.78
2016-05-09T03:37:29.197Z,12.83
2016-05-09T03:39:00.560Z,12.84
2016-05-09T03:39:29.234Z,12.9
2016-05-09T03:40:29.253Z,12.81
2016-05-09T03:41:29.098Z,12.84
2016-05-09T03:42:29.289Z,12.81
2016-05-09T03:43:48.510Z,12.91
2016-05-09T03:44:32.514Z,12.9
2016-05-09T03:45:32.672Z,12.83
2016-05-09T03:46:34.128Z,12.8
2016-05-09T03:47:45.458Z,12.83
2016-05-09T03:48:42.102Z,12.9
2016-05-09T03:49:55.761Z,12.8
2016-05-09T03:50:35.122Z,12.84
2016-05-09T03:52:48.706Z,12.91
2016-05-09T03:53:48.740Z,12.94
2016-05-09T03:54:51.774Z,12.91
2016-05-09T03:55:48.824Z,12.94
2016-05-09T03:56:48.796Z,12.9
2016-05-09T03:58:01.548Z,12.93
2016-05-09T03:59:01.676Z,12.99
2016-05-09T04:00:01.568Z,12.95
2016-05-09T04:01:08.057Z,12.91
2016-05-09T04:01:48.902Z,12.94
2016-05-09T04:03:48.907Z,12.99
2016-05-09T04:04:48.973Z,12.91
2016-05-09T04:06:01.694Z,13.01
2016-05-09T04:06:49.057Z,12.86
2016-05-09T04:08:08.215Z,13.03
2016-05-09T04:08:48.921Z,12.9
2016-05-09T04:10:14.720Z,12.91
2016-05-09T04:10:49.067Z,12.95
2016-05-09T04:13:29.998Z,13.03
2016-05-09T04:14:04.217Z,13.02
2016-05-09T04:15:37.064Z,13.11
2016-05-09T04:16:15.236Z,13.08
2016-05-09T04:17:15.270Z,13.16
2016-05-09T04:18:15.273Z,13.05
2016-05-09T04:19:15.011Z,13.19
2016-05-09T04:20:28.063Z,13.08
2016-05-09T04:21:16.783Z,13.11
2016-05-09T04:22:15.393Z,13.16
2016-05-09T04:23:15.396Z,13.19
2016-05-09T04:24:15.430Z,13.17
2016-05-09T04:25:15.433Z,13.26
2016-05-09T04:26:34.344Z,13.31
2016-05-09T04:27:16.879Z,13.28
2016-05-09T04:28:46.632Z,13.24
2016-05-09T04:29:25.227Z,13.37
2016-05-09T04:30:56.152Z,13.24
2016-05-09T04:31:40.640Z,13.42
2016-05-09T04:32:40.751Z,13.4
2016-05-09T04:33:59.863Z,13.39
2016-05-09T04:34:40.741Z,13.42
2016-05-09T04:36:11.993Z,13.46
2016-05-09T04:36:50.449Z,13.49
2016-05-09T04:39:24.832Z,13.57
2016-05-09T04:40:05.676Z,13.54
2016-05-09T04:41:05.648Z,13.61
2016-05-09T04:42:05.666Z,13.65
2016-05-09T04:43:08.825Z,13.73
2016-05-09T04:44:31.237Z,13.73
2016-05-09T04:45:05.737Z,13.85
2016-05-09T04:46:05.724Z,13.86
2016-05-09T04:47:05.851Z,13.86
2016-05-09T04:49:48.126Z,13.89
2016-05-09T04:50:22.455Z,13.94
2016-05-09T04:51:22.506Z,13.91
2016-05-09T04:52:38.367Z,14.04
2016-05-09T04:53:41.542Z,13.91
2016-05-09T04:54:41.544Z,13.95
2016-05-09T04:55:42.986Z,14.07
2016-05-09T04:57:00.628Z,14.15
2016-05-09T04:58:09.772Z,14.23
2016-05-09T04:59:06.883Z,14.25
2016-05-09T05:00:06.496Z,14.23
2016-05-09T05:01:07.795Z,14.25
2016-05-09T05:02:19.301Z,14.38
2016-05-09T05:03:19.351Z,14.38
2016-05-09T05:05:09.165Z,14.44
2016-05-09T05:05:41.043Z,14.66
2016-05-09T05:07:12.359Z,14.86
2016-05-09T05:07:56.346Z,15.17
2016-05-09T05:09:22.038Z,16.29
2016-05-09T05:10:31.698Z,17.2
2016-05-09T05:11:06.041Z,18.57
2016-05-09T05:13:21.159Z,20.93
2016-05-09T05:15:24.383Z,21.84
2016-05-09T05:16:25.494Z,22.33
2016-05-09T05:17:24.435Z,22.49
2016-05-09T05:18:24.453Z,23.01
2016-05-09T05:19:37.206Z,23.48
2016-05-09T05:20:25.927Z,23.91
2016-05-09T05:21:24.524Z,24.09
2016-05-09T05:22:24.557Z,24.77
2016-05-09T05:23:24.670Z,24.81
2016-05-09T05:24:24.595Z,24.92
2016-05-09T05:25:24.613Z,25.26
2016-05-09T05:26:24.630Z,25.78
2016-05-09T05:27:24.711Z,25.41
2016-05-09T05:28:24.683Z,25.95
2016-05-09T05:29:24.655Z,26.01
2016-05-09T05:30:24.580Z,26.37
2016-05-09T05:31:44.019Z,26.6
2016-05-09T05:32:24.787Z,26.88
2016-05-09T05:33:56.118Z,27.26
2016-05-09T05:34:26.324Z,27.34
2016-05-09T05:35:24.890Z,27.52
2016-05-09T05:36:24.924Z,27.72
2016-05-09T05:37:24.942Z,26.89
2016-05-09T05:38:24.976Z,26.61
2016-05-09T05:39:25.009Z,27.47
2016-05-09T05:40:27.887Z,27.72
2016-05-09T05:41:25.062Z,27.55
2016-05-09T05:42:25.096Z,27.38
2016-05-09T05:43:25.129Z,27.64
2016-05-09T05:44:25.867Z,28.03
2016-05-09T05:45:25.214Z,28.23
2016-05-09T05:46:25.201Z,28.6
2016-05-09T05:47:25.281Z,28.22
2016-05-09T05:48:25.128Z,28.3
2016-05-09T05:49:37.864Z,27.52
2016-05-09T05:50:25.320Z,27.94
2016-05-09T05:51:25.213Z,27.48
2016-05-09T05:52:38.122Z,27.44
2016-05-09T05:53:25.439Z,27.75
2016-05-09T05:54:25.472Z,26.97
2016-05-09T05:55:25.506Z,26.7
2016-05-09T05:56:25.539Z,26.39
2016-05-09T05:57:25.558Z,26.45
2016-05-09T05:58:25.591Z,25.93
2016-05-09T05:59:26.547Z,25.74
2016-05-09T06:00:25.703Z,25.86
2016-05-09T06:01:25.625Z,25.71
2016-05-09T06:02:27.405Z,26.39
2016-05-09T06:03:27.390Z,26.71
2016-05-09T06:04:26.015Z,26.04
2016-05-09T06:05:26.048Z,26.42
2016-05-09T06:06:26.177Z,26.7
2016-05-09T06:07:26.209Z,27
2016-05-09T06:08:32.510Z,27.25
2016-05-09T06:09:26.232Z,26.92
2016-05-09T06:10:26.271Z,26.23
2016-05-09T06:11:26.342Z,26.23
2016-05-09T06:12:26.460Z,26.27
2016-05-09T06:13:26.391Z,26.11
2016-05-09T06:14:26.591Z,26.03
2016-05-09T06:15:26.471Z,25.92
2016-05-09T06:16:26.350Z,26.18
2016-05-09T06:17:26.543Z,26.7
2016-05-09T06:18:26.407Z,27.04
2016-05-09T06:19:26.661Z,27.33
2016-05-09T06:20:26.477Z,27.98
2016-05-09T06:21:26.652Z,28.33
2016-05-09T06:22:26.687Z,27.63
2016-05-09T06:23:26.737Z,27.79
2016-05-09T06:24:26.600Z,28.38
2016-05-09T06:25:26.837Z,29.05
2016-05-09T06:26:26.856Z,29.42
2016-05-09T06:27:26.734Z,29.62
2016-05-09T06:28:28.314Z,29.13
2016-05-09T06:29:39.520Z,28.49
2016-05-09T06:30:26.820Z,28.53
2016-05-09T06:31:26.994Z,28.41
2016-05-09T06:32:27.168Z,28.41
2016-05-09T06:33:27.077Z,28.86
2016-05-09T06:34:27.143Z,28.23
2016-05-09T06:35:26.974Z,28.27
2016-05-09T06:36:27.164Z,28.67
2016-05-09T06:37:28.619Z,29.52
2016-05-09T06:38:46.482Z,29.86
2016-05-09T06:39:36.782Z,30.56
2016-05-09T06:40:30.549Z,30.44
2016-05-09T06:41:44.021Z,29.76
2016-05-09T06:42:30.586Z,29.53
2016-05-09T06:43:30.463Z,29.76
2016-05-09T06:44:43.264Z,30.05
2016-05-09T06:45:32.141Z,30.49
2016-05-09T06:46:30.754Z,30.13
2016-05-09T06:47:43.537Z,29.57
2016-05-09T06:48:30.821Z,29
2016-05-09T06:49:50.043Z,29.4
2016-05-09T06:50:30.873Z,29.68
2016-05-09T06:51:30.907Z,29.55
2016-05-09T06:52:30.784Z,29.59
2016-05-09T06:53:32.272Z,29.49
2016-05-09T06:54:31.025Z,29.5
2016-05-09T06:55:31.059Z,28.9
2016-05-09T06:56:31.109Z,28.67
2016-05-09T06:57:31.126Z,29.03
2016-05-09T06:58:31.145Z,28.64
2016-05-09T06:59:31.320Z,28.92
2016-05-09T07:00:31.228Z,29.15
2016-05-09T07:01:32.528Z,29.28
2016-05-09T07:02:31.374Z,29.64
2016-05-09T07:03:50.455Z,29.35
2016-05-09T07:04:31.520Z,28.8
2016-05-09T07:06:33.995Z,27.63
2016-05-09T07:07:12.667Z,27.79
2016-05-09T07:07:46.716Z,27.85
2016-05-09T07:08:46.766Z,27.86
2016-05-09T07:09:59.549Z,28.25
2016-05-09T07:10:48.240Z,28.22
2016-05-09T07:12:12.368Z,27.63
2016-05-09T07:12:46.871Z,27.53
2016-05-09T07:13:47.061Z,27.73
2016-05-09T07:14:59.782Z,27.37
2016-05-09T07:16:06.191Z,28.03
2016-05-09T07:16:50.006Z,28.45
2016-05-09T07:18:09.243Z,28.38
2016-05-09T07:18:50.090Z,28.6
2016-05-09T07:21:08.298Z,29.86
2016-05-09T07:22:08.316Z,29.94
2016-05-09T07:23:08.365Z,29.96
2016-05-09T07:24:20.978Z,29.83
2016-05-09T07:25:08.449Z,29.94
2016-05-09T07:26:08.484Z,30.24
2016-05-09T07:27:09.970Z,30.65
2016-05-09T07:28:08.536Z,30.03
2016-05-09T07:29:11.820Z,29.64
2016-05-09T07:30:08.620Z,29.1
2016-05-09T07:31:14.950Z,28.13
2016-05-09T07:32:11.546Z,27.94
2016-05-09T07:33:08.753Z,27.91
2016-05-09T07:34:21.520Z,28.57
2016-05-09T07:35:11.945Z,28.8
2016-05-09T07:36:08.839Z,29.03
2016-05-09T07:37:21.450Z,28.62
2016-05-09T07:38:08.734Z,28.71
2016-05-09T07:39:34.614Z,28.01
2016-05-09T07:40:18.552Z,27.47
2016-05-09T07:41:31.183Z,27.13
2016-05-09T07:42:18.511Z,27.23
2016-05-09T07:44:29.516Z,27.1
2016-05-09T07:45:47.552Z,27.41
2016-05-09T07:46:31.618Z,27.63
2016-05-09T07:48:42.779Z,28.3
2016-05-09T07:50:02.033Z,27.63
2016-05-09T07:50:44.473Z,27.79
2016-05-09T07:51:43.059Z,28.35
2016-05-09T07:52:43.093Z,28.74
2016-05-09T07:53:42.814Z,28.35
2016-05-09T07:54:43.157Z,27.94
2016-05-09T07:55:43.219Z,27.53
2016-05-09T07:56:55.988Z,27.1
2016-05-09T07:57:56.005Z,26.68
2016-05-09T07:59:04.400Z,26.3
2016-05-09T08:00:02.543Z,26.34
2016-05-09T08:01:14.638Z,25.67
2016-05-09T08:02:14.719Z,24.94
2016-05-09T08:02:43.426Z,25.06
2016-05-09T08:03:43.615Z,24.4
2016-05-09T08:04:49.212Z,24
2016-05-09T08:05:56.840Z,23.49
2016-05-09T08:06:47.607Z,23.06
2016-05-09T08:07:49.876Z,22.92
2016-05-09T08:09:01.988Z,22.55
2016-05-09T08:10:00.616Z,22.43
2016-05-09T08:10:43.713Z,22.33
2016-05-09T08:12:04.200Z,22.1
2016-05-09T08:12:43.624Z,22.03
2016-05-09T08:14:46.348Z,22.06
2016-05-09T08:14:59.020Z,22
2016-05-09T08:15:59.070Z,22
2016-05-09T08:16:59.073Z,22.07
2016-05-09T08:18:11.701Z,22.04
2016-05-09T08:19:18.203Z,22.06
2016-05-09T08:20:24.861Z,22.12
2016-05-09T08:20:59.209Z,22.07
2016-05-09T08:22:24.789Z,22.08
2016-05-09T08:23:30.525Z,22.12
2016-05-09T08:24:08.842Z,22.07
2016-05-09T08:25:09.017Z,22.03
2016-05-09T08:26:10.488Z,22.03
2016-05-09T08:27:09.069Z,22.06
2016-05-09T08:28:21.680Z,22.01
2016-05-09T08:29:08.980Z,22.04
2016-05-09T08:30:09.155Z,22.08
2016-05-09T08:31:09.032Z,22.06
2016-05-09T08:32:09.363Z,21.97
2016-05-09T08:33:28.444Z,21.97
2016-05-09T08:34:09.274Z,22.04
2016-05-09T08:35:40.593Z,22
2016-05-09T08:36:09.311Z,22.07
2016-05-09T08:37:09.346Z,22.1
2016-05-09T08:38:28.426Z,22.26
2016-05-09T08:39:12.397Z,22.28
2016-05-09T08:40:31.634Z,22.26
2016-05-09T08:41:15.497Z,22.3
2016-05-09T08:42:15.593Z,22.31
2016-05-09T08:43:15.627Z,22.33
2016-05-09T08:44:17.051Z,22.25
2016-05-09T08:45:28.257Z,22.28
2016-05-09T08:46:28.448Z,22.28
2016-05-09T08:47:37.953Z,22.36
2016-05-09T08:48:15.797Z,22.46
2016-05-09T08:49:15.612Z,22.49
2016-05-09T08:50:28.552Z,22.37
2016-05-09T08:51:28.570Z,22.47
2016-05-09T08:52:41.389Z,22.58
2016-05-09T08:53:15.904Z,22.51
2016-05-09T08:54:47.394Z,22.58
2016-05-09T08:55:25.831Z,22.58
2016-05-09T08:56:57.133Z,22.52
2016-05-09T08:57:41.386Z,22.47
2016-05-09T08:58:41.780Z,22.52
2016-05-09T08:59:41.422Z,22.58
2016-05-09T09:00:41.332Z,22.65
2016-05-09T09:01:41.381Z,22.68
2016-05-09T09:02:41.383Z,22.63
2016-05-09T09:03:41.465Z,22.61
2016-05-09T09:04:41.280Z,22.65
2016-05-09T09:05:41.470Z,22.63
2016-05-09T09:06:42.723Z,22.7
2016-05-09T09:07:42.928Z,22.65
2016-05-09T09:08:41.541Z,22.61
2016-05-09T09:09:41.559Z,22.62
2016-05-09T09:10:41.451Z,22.76
2016-05-09T09:11:41.611Z,22.92
2016-05-09T09:12:43.177Z,23.01
2016-05-09T09:13:43.101Z,23.13
2016-05-09T09:15:00.948Z,23.11
2016-05-09T09:15:46.185Z,23.18
2016-05-09T09:17:13.046Z,23.13
2016-05-09T09:17:57.659Z,23.29
2016-05-09T09:18:57.615Z,23.39
2016-05-09T09:19:57.726Z,23.37
2016-05-09T09:20:57.698Z,23.48
2016-05-09T09:22:16.919Z,23.37
2016-05-09T09:22:57.750Z,23.51
2016-05-09T09:24:23.425Z,23.36
2016-05-09T09:25:07.397Z,23.48
2016-05-09T09:26:20.180Z,23.28
2016-05-09T09:27:20.230Z,23.08
2016-05-09T09:28:07.326Z,23.08
2016-05-09T09:29:07.500Z,23.1
2016-05-09T09:30:07.535Z,23.14
2016-05-09T09:31:07.646Z,23.29
2016-05-09T09:32:07.416Z,23.34
2016-05-09T09:33:07.668Z,23.48
2016-05-09T09:34:07.639Z,23.49
2016-05-09T09:35:07.736Z,23.51
2016-05-09T09:36:07.676Z,23.47
2016-05-09T09:37:07.694Z,23.4
2016-05-09T09:38:07.744Z,23.26
2016-05-09T09:39:20.496Z,23.37
2016-05-09T09:40:09.187Z,23.25
2016-05-09T09:41:09.096Z,23.32
2016-05-09T09:42:07.863Z,23.25
2016-05-09T09:43:07.882Z,23.33
2016-05-09T09:44:08.228Z,23.47
2016-05-09T09:45:10.951Z,23.66
2016-05-09T09:46:07.937Z,23.67
2016-05-09T09:47:08.001Z,23.67
2016-05-09T09:48:20.599Z,23.59
2016-05-09T09:49:08.039Z,23.55
2016-05-09T09:50:08.073Z,23.54
2016-05-09T09:51:20.622Z,23.48
2016-05-09T09:53:33.815Z,23.69
2016-05-09T09:54:07.850Z,23.77
2016-05-09T09:55:08.040Z,23.59
2016-05-09T09:56:08.230Z,23.77
2016-05-09T09:58:24.922Z,24.01
2016-05-09T09:59:24.956Z,24
2016-05-09T10:00:26.365Z,24.01
2016-05-09T10:01:37.731Z,23.99
2016-05-09T10:02:25.075Z,24.04
2016-05-09T10:03:44.142Z,23.95
2016-05-09T10:04:37.801Z,23.94
2016-05-09T10:06:52.774Z,23.96
2016-05-09T10:07:40.230Z,24
2016-05-09T10:09:06.046Z,23.88
2016-05-09T10:09:40.282Z,23.96
2016-05-09T10:10:40.316Z,23.99
2016-05-09T10:11:40.335Z,24.04
2016-05-09T10:12:43.401Z,24.18
2016-05-09T10:13:41.810Z,24.16
2016-05-09T10:14:59.624Z,24.28
2016-05-09T10:15:40.455Z,24.16
2016-05-09T10:16:40.552Z,24.21
2016-05-09T10:17:40.507Z,24.32
2016-05-09T10:18:41.792Z,24.4
2016-05-09T10:19:40.560Z,24.28
2016-05-09T10:20:59.656Z,24.18
2016-05-09T10:21:53.253Z,24.01
2016-05-09T10:22:40.787Z,24.03
2016-05-09T10:24:06.180Z,24.03
2016-05-09T10:24:40.823Z,24.01
2016-05-09T10:26:12.061Z,23.95
2016-05-09T10:26:42.141Z,23.99
2016-05-09T10:27:40.784Z,24.03
2016-05-09T10:28:53.381Z,24.22
2016-05-09T10:29:40.822Z,24.13
2016-05-09T10:31:00.074Z,23.91
2016-05-09T10:31:53.639Z,23.99
2016-05-09T10:32:40.922Z,24.07
2016-05-09T10:33:40.942Z,24.1
2016-05-09T10:34:44.069Z,24.21
2016-05-09T10:35:43.947Z,24.13
2016-05-09T10:36:56.777Z,24.26
2016-05-09T10:37:44.014Z,24.28
2016-05-09T10:38:44.188Z,24.36
2016-05-09T10:39:47.301Z,24.58
2016-05-09T10:40:44.241Z,24.43
2016-05-09T10:41:56.994Z,24.34
2016-05-09T10:42:57.028Z,24.18
2016-05-09T10:43:44.327Z,24.16
2016-05-09T10:44:44.362Z,24.07
2016-05-09T10:45:45.785Z,24.26
2016-05-09T10:46:44.257Z,24.28
2016-05-09T10:47:56.854Z,24.28
2016-05-09T10:48:58.466Z,24.18
2016-05-09T10:50:54.112Z,24.37
2016-05-09T10:52:13.442Z,24.38
2016-05-09T10:52:55.601Z,24.25
2016-05-09T10:54:25.511Z,24.38
2016-05-09T10:55:03.545Z,24.43
2016-05-09T10:55:54.126Z,24.56
2016-05-09T10:56:54.300Z,24.61
2016-05-09T10:57:54.334Z,24.68
2016-05-09T10:58:54.383Z,24.78
2016-05-09T11:00:13.589Z,24.92
2016-05-09T11:01:07.139Z,24.77
2016-05-09T11:02:25.703Z,24.92
2016-05-09T11:03:13.722Z,24.79
2016-05-09T11:03:57.834Z,24.78
2016-05-09T11:04:57.836Z,24.69
2016-05-09T11:05:57.886Z,24.65
2016-05-09T11:07:17.124Z,24.74
2016-05-09T11:08:10.674Z,24.66
2016-05-09T11:09:23.707Z,24.77
2016-05-09T11:10:18.616Z,24.75
2016-05-09T11:12:29.340Z,24.88
2016-05-09T11:13:07.750Z,24.94
2016-05-09T11:15:23.255Z,24.89
2016-05-09T11:16:23.288Z,24.94
2016-05-09T11:17:23.306Z,25.11
2016-05-09T11:18:36.106Z,25.15
2016-05-09T11:19:35.968Z,25.11
2016-05-09T11:20:49.083Z,25.22
2016-05-09T11:23:04.370Z,25.18
2016-05-09T11:24:04.404Z,25.22
2016-05-09T11:25:04.266Z,25.34
2016-05-09T11:26:07.472Z,25.34
2016-05-09T11:27:17.209Z,25.33
2016-05-09T11:28:16.931Z,25.22
2016-05-09T11:29:17.698Z,25.24
2016-05-09T11:30:30.388Z,25.3
2016-05-09T11:31:30.251Z,25.34
2016-05-09T11:32:35.925Z,25.24
2016-05-09T11:33:30.319Z,25.26
2016-05-09T11:34:04.680Z,25.37
2016-05-09T11:36:14.358Z,25.41
2016-05-09T11:38:29.645Z,25.06
2016-05-09T11:39:29.788Z,25
2016-05-09T11:40:42.450Z,25.16
2016-05-09T11:41:42.325Z,25.19
2016-05-09T11:43:00.893Z,25.19
2016-05-09T11:43:55.474Z,25.26
2016-05-09T11:44:29.896Z,25.29
2016-05-09T11:45:31.257Z,25.33
2016-05-09T11:46:29.916Z,25.29
2016-05-09T11:47:49.094Z,25.3
2016-05-09T11:48:42.578Z,25.36
2016-05-09T11:49:29.955Z,25.22
2016-05-09T11:50:29.973Z,25.11
2016-05-09T11:51:31.289Z,25.19
2016-05-09T11:52:30.042Z,25.31
2016-05-09T11:53:30.076Z,25.26
2016-05-09T11:54:42.844Z,25.3
2016-05-09T11:55:29.956Z,25.3
2016-05-09T11:56:30.130Z,25.16
2016-05-09T11:57:31.586Z,25.21
2016-05-09T11:58:30.215Z,25.06
2016-05-09T11:59:33.326Z,25.01
2016-05-09T12:00:30.109Z,25.06
2016-05-09T12:01:36.550Z,24.92
2016-05-09T12:02:43.069Z,25.16
2016-05-09T12:03:43.072Z,25.21
2016-05-09T12:04:50.186Z,25.3
2016-05-09T12:05:30.389Z,25.25
2016-05-09T12:06:30.266Z,25.26
2016-05-09T12:07:43.207Z,25.36
2016-05-09T12:09:08.963Z,25.22
2016-05-09T12:09:56.183Z,25.3
2016-05-09T12:10:40.152Z,25.33
2016-05-09T12:11:40.218Z,25.25
2016-05-09T12:12:41.485Z,25.26
2016-05-09T12:13:52.960Z,25.4
2016-05-09T12:14:41.022Z,25.41
2016-05-09T12:16:42.871Z,25.31
2016-05-09T12:16:55.640Z,25.33
2016-05-09T12:17:55.487Z,25.37
2016-05-09T12:19:08.458Z,25.44
2016-05-09T12:19:56.976Z,25.48
2016-05-09T12:21:21.479Z,25.39
2016-05-09T12:21:55.779Z,25.36
2016-05-09T12:23:28.501Z,25.46
2016-05-09T12:24:08.565Z,25.39
2016-05-09T12:24:55.833Z,25.46
2016-05-09T12:27:06.839Z,25.34
2016-05-09T12:28:06.857Z,25.19
2016-05-09T12:29:08.298Z,25.21
2016-05-09T12:30:06.909Z,25.22
2016-05-09T12:31:26.147Z,25.3
2016-05-09T12:32:22.712Z,25.31
2016-05-09T12:33:22.684Z,25.22
2016-05-09T12:34:35.530Z,25.24
2016-05-09T12:35:35.361Z,25.29
2016-05-09T12:36:22.800Z,25.31
2016-05-09T12:38:32.541Z,25.4
2016-05-09T12:38:45.056Z,25.55
2016-05-09T12:39:45.089Z,25.61
2016-05-09T12:40:45.124Z,25.61
2016-05-09T12:41:57.864Z,25.7
2016-05-09T12:42:57.741Z,25.67
2016-05-09T12:44:11.149Z,25.58
2016-05-09T12:44:45.243Z,25.54
2016-05-09T12:45:45.278Z,25.67
2016-05-09T12:46:45.297Z,25.62
2016-05-09T12:47:45.315Z,25.66
2016-05-09T12:48:45.443Z,25.52
2016-05-09T12:49:45.366Z,25.61
2016-05-09T12:50:45.402Z,25.68
2016-05-09T12:51:45.263Z,25.61
2016-05-09T12:52:45.282Z,25.7
2016-05-09T12:53:58.254Z,25.66
2016-05-09T12:54:46.946Z,25.55
2016-05-09T12:55:45.555Z,25.43
2016-05-09T12:56:45.418Z,25.34
2016-05-09T12:57:45.748Z,25.33
2016-05-09T12:58:45.485Z,25.44
2016-05-09T12:59:45.393Z,25.67
2016-05-09T13:00:45.678Z,25.41
2016-05-09T13:01:45.759Z,25.43
2016-05-09T13:02:48.764Z,25.58
2016-05-09T13:03:47.173Z,25.66
2016-05-09T13:04:47.222Z,25.63
2016-05-09T13:05:48.881Z,25.73
2016-05-09T13:06:48.790Z,25.86
2016-05-09T13:07:52.137Z,25.89
2016-05-09T13:08:46.012Z,25.81
2016-05-09T13:09:45.936Z,25.62
2016-05-09T13:10:47.394Z,25.61
2016-05-09T13:11:46.004Z,25.68
2016-05-09T13:13:05.228Z,25.62
2016-05-09T13:14:05.278Z,25.62
2016-05-09T13:15:20.547Z,25.63
2016-05-09T13:16:20.580Z,25.67
2016-05-09T13:17:33.177Z,25.76
2016-05-09T13:18:33.382Z,25.77
2016-05-09T13:19:20.652Z,25.8
2016-05-09T13:20:46.372Z,25.81
2016-05-09T13:21:30.344Z,25.78
2016-05-09T13:24:05.742Z,25.8
2016-05-09T13:24:59.308Z,25.83
2016-05-09T13:26:14.576Z,25.89
2016-05-09T13:26:43.154Z,25.8
2016-05-09T13:27:43.360Z,25.73
2016-05-09T13:28:43.362Z,25.85
2016-05-09T13:29:44.662Z,25.93
2016-05-09T13:31:02.652Z,25.93
2016-05-09T13:31:56.186Z,25.85
2016-05-09T13:33:09.860Z,25.8
2016-05-09T13:34:14.737Z,25.92
2016-05-09T13:34:58.726Z,25.92
2016-05-09T13:36:25.806Z,26.06
2016-05-09T13:37:07.403Z,26.06